createdAt,value
2023-05-02T00:10:57.350Z,37.37
2023-05-02T00:26:00.225Z,39.63
2023-05-02T00:41:03.132Z,36.77
2023-05-02T00:56:06.484Z,42.60
2023-05-02T01:11:19.997Z,50.03
2023-05-02T01:26:41.370Z,48.43
2023-05-02T01:41:45.059Z,52.33
2023-05-02T01:56:49.235Z,48.23
2023-05-02T02:12:03.740Z,49.87
2023-05-02T02:27:06.459Z,49.43
2023-05-02T02:42:22.973Z,51.10
2023-05-02T02:57:48.540Z,50.70
2023-05-02T03:12:55.468Z,50.67
2023-05-02T03:27:59.080Z,51.27
2023-05-02T03:43:01.768Z,49.87
2023-05-02T03:58:08.299Z,47.47
2023-05-02T04:13:11.050Z,39.87
2023-05-02T04:28:16.692Z,30.30
2023-05-02T04:43:22.387Z,19.23
2023-05-02T04:58:32.148Z,14.27
2023-05-02T05:13:38.956Z,16.30
2023-05-02T05:28:43.990Z,15.63
2023-05-02T05:44:04.396Z,14.33
2023-05-02T05:59:07.822Z,12.50
2023-05-02T06:14:13.922Z,13.87
2023-05-02T06:29:18.340Z,17.70
2023-05-02T06:44:21.177Z,16.53
2023-05-02T06:59:24.143Z,13.37
2023-05-02T07:14:28.776Z,13.03
2023-05-02T07:29:32.068Z,9.47
2023-05-02T07:44:37.707Z,6.40
2023-05-02T08:00:45.671Z,5.60
2023-05-02T08:15:48.675Z,5.77
2023-05-02T08:31:29.129Z,5.53
2023-05-02T08:47:01.475Z,5.07
2023-05-02T09:03:08.649Z,3.83
2023-05-02T09:18:46.911Z,5.10
2023-05-02T09:34:10.554Z,3.43
2023-05-02T09:49:50.341Z,5.73
2023-05-02T10:05:31.147Z,4.03
2023-05-02T10:37:43.885Z,7.70
2023-05-02T10:52:51.414Z,6.57
2023-05-02T11:08:22.988Z,8.73
2023-05-02T11:23:55.230Z,8.40
2023-05-02T11:39:20.305Z,7.80
2023-05-02T11:54:25.816Z,7.67
2023-05-02T12:09:30.737Z,6.60
2023-05-02T12:24:33.988Z,7.73
2023-05-02T12:39:43.537Z,7.03
2023-05-02T12:54:46.774Z,6.07
2023-05-02T13:09:49.347Z,7.03
2023-05-02T13:25:35.693Z,6.70
2023-05-02T13:40:38.742Z,7.67
2023-05-02T13:55:41.741Z,6.57
2023-05-02T14:10:44.935Z,5.83
2023-05-02T14:25:47.842Z,5.47
2023-05-02T14:41:15.698Z,5.40
2023-05-02T14:56:42.064Z,6.47
2023-05-02T15:11:49.507Z,5.10
2023-05-02T15:26:52.746Z,7.23
2023-05-02T15:42:22.271Z,7.10
2023-05-02T15:58:08.625Z,5.80
2023-05-02T16:13:11.390Z,5.00
2023-05-02T16:28:13.837Z,5.43
2023-05-02T16:43:16.922Z,6.27
2023-05-02T16:58:20.635Z,8.50
2023-05-02T17:13:23.822Z,7.63
2023-05-02T17:28:26.314Z,5.47
2023-05-02T17:43:28.825Z,7.00
2023-05-02T17:58:32.541Z,4.13
2023-05-02T18:13:36.240Z,8.43
2023-05-02T18:28:49.310Z,6.50
2023-05-02T18:43:58.778Z,6.60
2023-05-02T18:59:08.354Z,6.33
2023-05-02T19:14:11.756Z,6.73
2023-05-02T19:29:23.971Z,7.67
2023-05-02T19:44:26.565Z,9.87
2023-05-02T19:59:29.502Z,6.90
2023-05-02T20:14:32.015Z,9.97
2023-05-02T20:29:54.398Z,8.13
2023-05-02T20:44:59.603Z,8.47
2023-05-02T21:00:02.692Z,10.13
2023-05-02T21:15:07.224Z,8.40
2023-05-02T21:30:10.138Z,8.00
2023-05-02T21:45:12.883Z,6.63
2023-05-02T22:00:15.437Z,6.80
2023-05-02T22:15:17.893Z,7.10
2023-05-02T22:30:20.447Z,5.13
2023-05-02T22:45:37.453Z,8.73
2023-05-02T23:00:53.675Z,5.53
2023-05-02T23:15:56.493Z,7.93
2023-05-02T23:31:19.452Z,8.43
2023-05-02T23:46:22.154Z,7.77
